sensor_id;sensor_type;location;lat;lon;timestamp;P1;durP1;ratioP1;P2;durP2;ratioP2
69906;SDS011;57190;47.918;8.112;2023-06-26T00:01:02;3.80;;;3.50;;
69906;SDS011;57190;47.918;8.112;2023-06-26T00:03:28;3.97;;;3.67;;
69906;SDS011;57190;47.918;8.112;2023-06-26T00:05:54;4.82;;;4.43;;
69906;SDS011;57190;47.918;8.112;2023-06-26T00:08:19;3.90;;;3.60;;
69906;SDS011;57190;47.918;8.112;2023-06-26T00:10:45;4.25;;;3.95;;
69906;SDS011;57190;47.918;8.112;2023-06-26T00:13:11;4.05;;;3.75;;
69906;SDS011;57190;47.918;8.112;2023-06-26T00:15:37;4.57;;;4.22;;
69906;SDS011;57190;47.918;8.112;2023-06-26T00:18:03;4.43;;;4.10;;
69906;SDS011;57190;47.918;8.112;2023-06-26T00:20:28;4.60;;;4.20;;
69906;SDS011;57190;47.918;8.112;2023-06-26T00:22:54;4.22;;;3.90;;
69906;SDS011;57190;47.918;8.112;2023-06-26T00:25:21;4.10;;;3.80;;
69906;SDS011;57190;47.918;8.112;2023-06-26T00:27:47;4.32;;;4.03;;
69906;SDS011;57190;47.918;8.112;2023-06-26T00:30:12;4.15;;;3.85;;
69906;SDS011;57190;47.918;8.112;2023-06-26T00:32:38;4.13;;;3.83;;
69906;SDS011;57190;47.918;8.112;2023-06-26T00:35:03;4.13;;;3.83;;
69906;SDS011;57190;47.918;8.112;2023-06-26T00:37:29;4.28;;;3.97;;
69906;SDS011;57190;47.918;8.112;2023-06-26T00:39:55;4.00;;;3.70;;
69906;SDS011;57190;47.918;8.112;2023-06-26T00:42:20;4.43;;;4.03;;
69906;SDS011;57190;47.918;8.112;2023-06-26T00:44:45;4.32;;;4.00;;
69906;SDS011;57190;47.918;8.112;2023-06-26T00:47:12;3.83;;;3.47;;
69906;SDS011;57190;47.918;8.112;2023-06-26T00:49:40;4.30;;;4.00;;
69906;SDS011;57190;47.918;8.112;2023-06-26T00:52:06;4.22;;;3.92;;
69906;SDS011;57190;47.918;8.112;2023-06-26T00:54:32;3.97;;;3.65;;
69906;SDS011;57190;47.918;8.112;2023-06-26T00:56:57;4.20;;;3.90;;
69906;SDS011;57190;47.918;8.112;2023-06-26T00:59:23;3.88;;;3.67;;
69906;SDS011;57190;47.918;8.112;2023-06-26T01:01:48;4.30;;;4.00;;
69906;SDS011;57190;47.918;8.112;2023-06-26T01:04:14;4.00;;;3.80;;
69906;SDS011;57190;47.918;8.112;2023-06-26T01:06:46;4.22;;;3.92;;
69906;SDS011;57190;47.918;8.112;2023-06-26T01:09:20;4.22;;;3.90;;
69906;SDS011;57190;47.918;8.112;2023-06-26T01:11:47;4.13;;;3.80;;
69906;SDS011;57190;47.918;8.112;2023-06-26T01:14:13;4.65;;;4.22;;
69906;SDS011;57190;47.918;8.112;2023-06-26T01:16:39;3.88;;;3.58;;
69906;SDS011;57190;47.918;8.112;2023-06-26T01:19:13;3.58;;;3.38;;
69906;SDS011;57190;47.918;8.112;2023-06-26T01:27:33;3.78;;;3.47;;
69906;SDS011;57190;47.918;8.112;2023-06-26T01:30:01;4.13;;;3.78;;
69906;SDS011;57190;47.918;8.112;2023-06-26T01:32:29;3.83;;;3.60;;
69906;SDS011;57190;47.918;8.112;2023-06-26T01:34:57;3.88;;;3.58;;
69906;SDS011;57190;47.918;8.112;2023-06-26T01:37:24;4.40;;;4.10;;
69906;SDS011;57190;47.918;8.112;2023-06-26T01:39:49;4.50;;;4.20;;
69906;SDS011;57190;47.918;8.112;2023-06-26T01:42:15;3.25;;;3.05;;
69906;SDS011;57190;47.918;8.112;2023-06-26T01:44:42;3.78;;;3.55;;
69906;SDS011;57190;47.918;8.112;2023-06-26T01:47:10;4.45;;;4.15;;
69906;SDS011;57190;47.918;8.112;2023-06-26T01:57:54;4.57;;;4.18;;
69906;SDS011;57190;47.918;8.112;2023-06-26T02:00:21;3.92;;;3.63;;
69906;SDS011;57190;47.918;8.112;2023-06-26T02:02:49;3.67;;;3.47;;
69906;SDS011;57190;47.918;8.112;2023-06-26T02:05:15;3.92;;;3.60;;
69906;SDS011;57190;47.918;8.112;2023-06-26T02:07:40;4.32;;;4.03;;
69906;SDS011;57190;47.918;8.112;2023-06-26T02:10:07;4.75;;;4.07;;
69906;SDS011;57190;47.918;8.112;2023-06-26T02:12:33;5.63;;;4.07;;
69906;SDS011;57190;47.918;8.112;2023-06-26T02:15:01;4.57;;;4.28;;
69906;SDS011;57190;47.918;8.112;2023-06-26T02:17:27;4.25;;;3.95;;
69906;SDS011;57190;47.918;8.112;2023-06-26T02:19:52;4.13;;;3.83;;
69906;SDS011;57190;47.918;8.112;2023-06-26T02:22:17;4.22;;;3.92;;
69906;SDS011;57190;47.918;8.112;2023-06-26T02:24:43;4.18;;;3.80;;
69906;SDS011;57190;47.918;8.112;2023-06-26T02:27:09;4.20;;;3.90;;
69906;SDS011;57190;47.918;8.112;2023-06-26T02:29:35;4.50;;;4.20;;
69906;SDS011;57190;47.918;8.112;2023-06-26T02:32:01;4.57;;;4.15;;
69906;SDS011;57190;47.918;8.112;2023-06-26T02:34:26;4.70;;;4.40;;
69906;SDS011;57190;47.918;8.112;2023-06-26T02:36:52;3.65;;;3.45;;
69906;SDS011;57190;47.918;8.112;2023-06-26T02:39:21;4.30;;;4.00;;
69906;SDS011;57190;47.918;8.112;2023-06-26T02:41:47;5.20;;;4.80;;
69906;SDS011;57190;47.918;8.112;2023-06-26T02:44:13;4.13;;;3.75;;
69906;SDS011;57190;47.918;8.112;2023-06-26T02:46:39;4.57;;;4.15;;
69906;SDS011;57190;47.918;8.112;2023-06-26T02:49:05;3.90;;;3.60;;
69906;SDS011;57190;47.918;8.112;2023-06-26T02:51:32;3.67;;;3.40;;
69906;SDS011;57190;47.918;8.112;2023-06-26T02:53:58;4.00;;;3.70;;
69906;SDS011;57190;47.918;8.112;2023-06-26T02:56:23;3.92;;;3.63;;
69906;SDS011;57190;47.918;8.112;2023-06-26T02:58:49;4.10;;;3.80;;
69906;SDS011;57190;47.918;8.112;2023-06-26T03:01:14;3.35;;;3.15;;
69906;SDS011;57190;47.918;8.112;2023-06-26T03:03:40;3.67;;;3.47;;
69906;SDS011;57190;47.918;8.112;2023-06-26T03:06:07;4.10;;;3.80;;
69906;SDS011;57190;47.918;8.112;2023-06-26T03:08:36;4.05;;;3.75;;
69906;SDS011;57190;47.918;8.112;2023-06-26T03:11:04;3.85;;;3.55;;
69906;SDS011;57190;47.918;8.112;2023-06-26T03:13:30;4.00;;;3.70;;
69906;SDS011;57190;47.918;8.112;2023-06-26T03:15:56;3.88;;;3.58;;
69906;SDS011;57190;47.918;8.112;2023-06-26T03:18:22;4.20;;;3.90;;
69906;SDS011;57190;47.918;8.112;2023-06-26T03:20:47;4.05;;;3.75;;
69906;SDS011;57190;47.918;8.112;2023-06-26T03:23:13;3.67;;;3.40;;
69906;SDS011;57190;47.918;8.112;2023-06-26T03:25:39;3.85;;;3.55;;
69906;SDS011;57190;47.918;8.112;2023-06-26T03:28:04;4.15;;;3.80;;
69906;SDS011;57190;47.918;8.112;2023-06-26T03:30:29;3.83;;;3.53;;
69906;SDS011;57190;47.918;8.112;2023-06-26T03:32:55;3.60;;;3.40;;
69906;SDS011;57190;47.918;8.112;2023-06-26T03:35:21;3.72;;;3.53;;
69906;SDS011;57190;47.918;8.112;2023-06-26T03:37:48;3.47;;;3.28;;
69906;SDS011;57190;47.918;8.112;2023-06-26T03:40:13;3.15;;;2.95;;
69906;SDS011;57190;47.918;8.112;2023-06-26T03:42:39;4.03;;;3.38;;
69906;SDS011;57190;47.918;8.112;2023-06-26T03:45:05;3.40;;;3.10;;
69906;SDS011;57190;47.918;8.112;2023-06-26T03:47:31;3.92;;;3.63;;
69906;SDS011;57190;47.918;8.112;2023-06-26T03:49:56;3.67;;;3.40;;
69906;SDS011;57190;47.918;8.112;2023-06-26T03:52:22;3.78;;;3.47;;
69906;SDS011;57190;47.918;8.112;2023-06-26T03:54:47;3.17;;;2.97;;
69906;SDS011;57190;47.918;8.112;2023-06-26T03:57:14;3.05;;;2.85;;
69906;SDS011;57190;47.918;8.112;2023-06-26T03:59:39;3.92;;;3.63;;
69906;SDS011;57190;47.918;8.112;2023-06-26T04:02:05;3.63;;;3.33;;
69906;SDS011;57190;47.918;8.112;2023-06-26T04:04:30;3.83;;;3.53;;
69906;SDS011;57190;47.918;8.112;2023-06-26T04:06:56;3.30;;;3.10;;
69906;SDS011;57190;47.918;8.112;2023-06-26T04:09:22;3.55;;;3.28;;
69906;SDS011;57190;47.918;8.112;2023-06-26T04:11:47;3.80;;;3.50;;
69906;SDS011;57190;47.918;8.112;2023-06-26T04:14:13;4.10;;;3.80;;
69906;SDS011;57190;47.918;8.112;2023-06-26T04:16:38;3.72;;;3.42;;
69906;SDS011;57190;47.918;8.112;2023-06-26T04:19:04;3.72;;;3.50;;
69906;SDS011;57190;47.918;8.112;2023-06-26T04:21:30;4.15;;;3.85;;
69906;SDS011;57190;47.918;8.112;2023-06-26T04:23:55;4.35;;;3.60;;
69906;SDS011;57190;47.918;8.112;2023-06-26T04:26:21;3.63;;;3.42;;
69906;SDS011;57190;47.918;8.112;2023-06-26T04:28:46;3.35;;;3.15;;
69906;SDS011;57190;47.918;8.112;2023-06-26T04:31:12;4.38;;;4.07;;
69906;SDS011;57190;47.918;8.112;2023-06-26T04:33:37;4.00;;;3.60;;
69906;SDS011;57190;47.918;8.112;2023-06-26T04:36:03;3.88;;;3.67;;
69906;SDS011;57190;47.918;8.112;2023-06-26T04:38:30;3.70;;;3.40;;
69906;SDS011;57190;47.918;8.112;2023-06-26T04:40:56;4.43;;;4.00;;
69906;SDS011;57190;47.918;8.112;2023-06-26T04:43:22;4.05;;;3.75;;
69906;SDS011;57190;47.918;8.112;2023-06-26T04:45:47;4.25;;;3.95;;
69906;SDS011;57190;47.918;8.112;2023-06-26T04:48:13;4.15;;;3.85;;
69906;SDS011;57190;47.918;8.112;2023-06-26T04:50:39;4.25;;;4.00;;
69906;SDS011;57190;47.918;8.112;2023-06-26T04:53:05;3.70;;;3.50;;
69906;SDS011;57190;47.918;8.112;2023-06-26T04:55:31;3.95;;;3.72;;
69906;SDS011;57190;47.918;8.112;2023-06-26T04:57:57;4.30;;;4.00;;
69906;SDS011;57190;47.918;8.112;2023-06-26T05:00:22;4.70;;;4.32;;
69906;SDS011;57190;47.918;8.112;2023-06-26T05:02:50;4.13;;;3.83;;
69906;SDS011;57190;47.918;8.112;2023-06-26T05:05:25;3.85;;;3.65;;
69906;SDS011;57190;47.918;8.112;2023-06-26T05:07:52;4.10;;;3.80;;
69906;SDS011;57190;47.918;8.112;2023-06-26T05:10:18;4.43;;;4.00;;
69906;SDS011;57190;47.918;8.112;2023-06-26T05:12:44;5.43;;;4.93;;
69906;SDS011;57190;47.918;8.112;2023-06-26T05:15:13;4.47;;;4.07;;
69906;SDS011;57190;47.918;8.112;2023-06-26T05:17:38;4.38;;;4.07;;
69906;SDS011;57190;47.918;8.112;2023-06-26T05:20:04;3.83;;;3.53;;
69906;SDS011;57190;47.918;8.112;2023-06-26T05:22:31;5.47;;;4.60;;
69906;SDS011;57190;47.918;8.112;2023-06-26T05:24:58;3.80;;;3.60;;
69906;SDS011;57190;47.918;8.112;2023-06-26T05:27:25;4.05;;;3.75;;
69906;SDS011;57190;47.918;8.112;2023-06-26T05:29:51;4.05;;;3.75;;
69906;SDS011;57190;47.918;8.112;2023-06-26T05:32:17;3.85;;;3.55;;
69906;SDS011;57190;47.918;8.112;2023-06-26T05:34:44;3.90;;;3.55;;
69906;SDS011;57190;47.918;8.112;2023-06-26T05:37:18;3.58;;;3.38;;
69906;SDS011;57190;47.918;8.112;2023-06-26T05:39:46;4.18;;;3.88;;
69906;SDS011;57190;47.918;8.112;2023-06-26T05:42:12;4.40;;;4.10;;
69906;SDS011;57190;47.918;8.112;2023-06-26T05:44:38;4.43;;;4.13;;
69906;SDS011;57190;47.918;8.112;2023-06-26T05:47:04;4.40;;;4.10;;
69906;SDS011;57190;47.918;8.112;2023-06-26T05:49:30;5.00;;;4.60;;
69906;SDS011;57190;47.918;8.112;2023-06-26T05:51:56;4.05;;;3.75;;
69906;SDS011;57190;47.918;8.112;2023-06-26T05:54:23;4.93;;;4.63;;
69906;SDS011;57190;47.918;8.112;2023-06-26T05:56:49;4.30;;;4.00;;
69906;SDS011;57190;47.918;8.112;2023-06-26T05:59:21;4.63;;;4.30;;
69906;SDS011;57190;47.918;8.112;2023-06-26T06:01:47;3.88;;;3.60;;
69906;SDS011;57190;47.918;8.112;2023-06-26T06:04:13;4.50;;;4.20;;
69906;SDS011;57190;47.918;8.112;2023-06-26T06:06:38;5.07;;;4.68;;
69906;SDS011;57190;47.918;8.112;2023-06-26T06:09:03;4.57;;;4.28;;
69906;SDS011;57190;47.918;8.112;2023-06-26T06:11:29;4.05;;;3.85;;
69906;SDS011;57190;47.918;8.112;2023-06-26T06:13:54;4.43;;;4.13;;
69906;SDS011;57190;47.918;8.112;2023-06-26T06:16:20;4.43;;;4.13;;
69906;SDS011;57190;47.918;8.112;2023-06-26T06:18:45;4.63;;;4.32;;
69906;SDS011;57190;47.918;8.112;2023-06-26T06:21:11;4.35;;;4.05;;
69906;SDS011;57190;47.918;8.112;2023-06-26T06:23:36;4.55;;;4.15;;
69906;SDS011;57190;47.918;8.112;2023-06-26T06:26:03;3.67;;;3.47;;
69906;SDS011;57190;47.918;8.112;2023-06-26T06:28:28;4.63;;;4.32;;
69906;SDS011;57190;47.918;8.112;2023-06-26T06:30:54;3.90;;;3.70;;
69906;SDS011;57190;47.918;8.112;2023-06-26T06:33:19;4.13;;;3.92;;
69906;SDS011;57190;47.918;8.112;2023-06-26T06:35:45;3.90;;;3.65;;
69906;SDS011;57190;47.918;8.112;2023-06-26T06:38:10;4.22;;;3.92;;
69906;SDS011;57190;47.918;8.112;2023-06-26T06:40:36;3.70;;;3.50;;
69906;SDS011;57190;47.918;8.112;2023-06-26T06:43:01;4.43;;;4.10;;
69906;SDS011;57190;47.918;8.112;2023-06-26T06:45:27;4.45;;;4.15;;
69906;SDS011;57190;47.918;8.112;2023-06-26T06:47:52;4.97;;;4.60;;
69906;SDS011;57190;47.918;8.112;2023-06-26T06:50:18;4.22;;;3.92;;
69906;SDS011;57190;47.918;8.112;2023-06-26T06:52:44;4.07;;;3.78;;
69906;SDS011;57190;47.918;8.112;2023-06-26T06:55:10;4.70;;;4.40;;
69906;SDS011;57190;47.918;8.112;2023-06-26T06:57:36;4.00;;;3.70;;
69906;SDS011;57190;47.918;8.112;2023-06-26T07:00:04;5.05;;;4.70;;
69906;SDS011;57190;47.918;8.112;2023-06-26T07:02:33;5.60;;;4.22;;
69906;SDS011;57190;47.918;8.112;2023-06-26T07:05:00;4.25;;;3.95;;
69906;SDS011;57190;47.918;8.112;2023-06-26T07:07:28;4.25;;;3.95;;
69906;SDS011;57190;47.918;8.112;2023-06-26T07:09:56;3.92;;;3.63;;
69906;SDS011;57190;47.918;8.112;2023-06-26T07:12:22;4.85;;;4.55;;
69906;SDS011;57190;47.918;8.112;2023-06-26T07:14:47;4.57;;;4.10;;
69906;SDS011;57190;47.918;8.112;2023-06-26T07:17:13;4.20;;;3.90;;
69906;SDS011;57190;47.918;8.112;2023-06-26T07:19:38;4.10;;;3.80;;
69906;SDS011;57190;47.918;8.112;2023-06-26T07:22:03;3.92;;;3.72;;
69906;SDS011;57190;47.918;8.112;2023-06-26T07:24:29;5.25;;;4.85;;
69906;SDS011;57190;47.918;8.112;2023-06-26T07:26:54;4.43;;;4.15;;
69906;SDS011;57190;47.918;8.112;2023-06-26T07:29:44;4.90;;;4.50;;
69906;SDS011;57190;47.918;8.112;2023-06-26T07:32:10;4.78;;;4.47;;
69906;SDS011;57190;47.918;8.112;2023-06-26T07:34:35;4.40;;;4.10;;
69906;SDS011;57190;47.918;8.112;2023-06-26T07:37:01;4.63;;;4.30;;
69906;SDS011;57190;47.918;8.112;2023-06-26T07:39:27;4.45;;;4.15;;
69906;SDS011;57190;47.918;8.112;2023-06-26T07:41:52;4.32;;;4.05;;
69906;SDS011;57190;47.918;8.112;2023-06-26T07:44:18;4.50;;;4.20;;
69906;SDS011;57190;47.918;8.112;2023-06-26T07:46:43;3.92;;;3.63;;
69906;SDS011;57190;47.918;8.112;2023-06-26T07:49:10;4.57;;;4.18;;
69906;SDS011;57190;47.918;8.112;2023-06-26T07:51:36;4.20;;;3.90;;
69906;SDS011;57190;47.918;8.112;2023-06-26T07:54:01;4.32;;;4.03;;
69906;SDS011;57190;47.918;8.112;2023-06-26T07:56:27;4.10;;;3.83;;
69906;SDS011;57190;47.918;8.112;2023-06-26T07:58:52;4.05;;;3.75;;
69906;SDS011;57190;47.918;8.112;2023-06-26T08:01:18;4.25;;;3.95;;
69906;SDS011;57190;47.918;8.112;2023-06-26T08:03:44;4.60;;;4.30;;
69906;SDS011;57190;47.918;8.112;2023-06-26T08:06:09;4.70;;;4.32;;
69906;SDS011;57190;47.918;8.112;2023-06-26T08:08:35;4.35;;;4.05;;
69906;SDS011;57190;47.918;8.112;2023-06-26T08:11:00;4.38;;;4.07;;
69906;SDS011;57190;47.918;8.112;2023-06-26T08:13:26;4.45;;;4.15;;
69906;SDS011;57190;47.918;8.112;2023-06-26T08:15:52;4.03;;;3.72;;
69906;SDS011;57190;47.918;8.112;2023-06-26T08:18:17;3.67;;;3.47;;
69906;SDS011;57190;47.918;8.112;2023-06-26T08:20:43;5.45;;;4.38;;
69906;SDS011;57190;47.918;8.112;2023-06-26T08:23:09;4.38;;;4.07;;
69906;SDS011;57190;47.918;8.112;2023-06-26T08:25:34;4.22;;;3.92;;
69906;SDS011;57190;47.918;8.112;2023-06-26T08:28:00;4.15;;;3.85;;
69906;SDS011;57190;47.918;8.112;2023-06-26T08:30:25;3.95;;;3.75;;
69906;SDS011;57190;47.918;8.112;2023-06-26T08:32:55;4.43;;;4.13;;
69906;SDS011;57190;47.918;8.112;2023-06-26T08:35:21;4.05;;;3.83;;
69906;SDS011;57190;47.918;8.112;2023-06-26T08:37:47;4.13;;;3.83;;
69906;SDS011;57190;47.918;8.112;2023-06-26T08:40:12;4.47;;;4.18;;
69906;SDS011;57190;47.918;8.112;2023-06-26T08:42:42;4.80;;;4.50;;
69906;SDS011;57190;47.918;8.112;2023-06-26T08:45:08;4.63;;;4.32;;
69906;SDS011;57190;47.918;8.112;2023-06-26T08:47:33;4.40;;;4.15;;
69906;SDS011;57190;47.918;8.112;2023-06-26T08:52:35;4.15;;;3.90;;
69906;SDS011;57190;47.918;8.112;2023-06-26T08:55:09;4.40;;;4.10;;
69906;SDS011;57190;47.918;8.112;2023-06-26T08:57:36;4.78;;;4.47;;
69906;SDS011;57190;47.918;8.112;2023-06-26T09:00:02;4.90;;;4.55;;
69906;SDS011;57190;47.918;8.112;2023-06-26T09:02:29;5.15;;;4.85;;
69906;SDS011;57190;47.918;8.112;2023-06-26T09:04:54;4.60;;;4.30;;
69906;SDS011;57190;47.918;8.112;2023-06-26T09:07:20;4.55;;;4.15;;
69906;SDS011;57190;47.918;8.112;2023-06-26T09:09:46;4.75;;;4.45;;
69906;SDS011;57190;47.918;8.112;2023-06-26T09:12:12;4.55;;;4.20;;
69906;SDS011;57190;47.918;8.112;2023-06-26T09:14:38;4.68;;;4.38;;
69906;SDS011;57190;47.918;8.112;2023-06-26T09:17:04;4.60;;;4.30;;
69906;SDS011;57190;47.918;8.112;2023-06-26T09:19:30;4.80;;;4.43;;
69906;SDS011;57190;47.918;8.112;2023-06-26T09:21:56;4.97;;;4.57;;
69906;SDS011;57190;47.918;8.112;2023-06-26T09:24:22;4.40;;;4.15;;
69906;SDS011;57190;47.918;8.112;2023-06-26T09:26:48;4.65;;;4.35;;
69906;SDS011;57190;47.918;8.112;2023-06-26T09:29:14;4.53;;;4.22;;
69906;SDS011;57190;47.918;8.112;2023-06-26T09:31:40;4.78;;;4.47;;
69906;SDS011;57190;47.918;8.112;2023-06-26T09:34:06;4.40;;;4.10;;
69906;SDS011;57190;47.918;8.112;2023-06-26T09:36:32;4.53;;;4.22;;
69906;SDS011;57190;47.918;8.112;2023-06-26T09:38:59;4.55;;;4.25;;
69906;SDS011;57190;47.918;8.112;2023-06-26T09:41:25;4.32;;;4.03;;
69906;SDS011;57190;47.918;8.112;2023-06-26T09:43:51;5.00;;;4.70;;
69906;SDS011;57190;47.918;8.112;2023-06-26T09:46:17;4.75;;;4.35;;
69906;SDS011;57190;47.918;8.112;2023-06-26T09:48:57;4.88;;;4.57;;
69906;SDS011;57190;47.918;8.112;2023-06-26T09:51:33;4.75;;;4.35;;
69906;SDS011;57190;47.918;8.112;2023-06-26T09:54:00;4.38;;;4.07;;
69906;SDS011;57190;47.918;8.112;2023-06-26T09:56:32;5.43;;;5.03;;
69906;SDS011;57190;47.918;8.112;2023-06-26T09:58:58;5.20;;;4.90;;
69906;SDS011;57190;47.918;8.112;2023-06-26T10:01:29;5.10;;;4.60;;
69906;SDS011;57190;47.918;8.112;2023-06-26T10:03:56;5.65;;;5.22;;
69906;SDS011;57190;47.918;8.112;2023-06-26T10:06:28;5.65;;;5.15;;
69906;SDS011;57190;47.918;8.112;2023-06-26T10:08:58;5.95;;;5.55;;
69906;SDS011;57190;47.918;8.112;2023-06-26T10:11:25;5.20;;;4.90;;
69906;SDS011;57190;47.918;8.112;2023-06-26T10:14:01;5.53;;;5.13;;
69906;SDS011;57190;47.918;8.112;2023-06-26T10:16:29;5.88;;;5.47;;
69906;SDS011;57190;47.918;8.112;2023-06-26T10:19:01;6.00;;;5.57;;
69906;SDS011;57190;47.918;8.112;2023-06-26T10:21:30;6.18;;;5.45;;
69906;SDS011;57190;47.918;8.112;2023-06-26T10:23:56;6.07;;;5.65;;
69906;SDS011;57190;47.918;8.112;2023-06-26T10:26:23;6.15;;;5.70;;
69906;SDS011;57190;47.918;8.112;2023-06-26T10:29:19;5.65;;;5.35;;
69906;SDS011;57190;47.918;8.112;2023-06-26T10:31:50;6.30;;;5.80;;
69906;SDS011;57190;47.918;8.112;2023-06-26T10:34:20;6.60;;;6.00;;
69906;SDS011;57190;47.918;8.112;2023-06-26T10:36:46;7.00;;;6.40;;
69906;SDS011;57190;47.918;8.112;2023-06-26T10:39:13;7.15;;;6.65;;
69906;SDS011;57190;47.918;8.112;2023-06-26T10:41:40;6.68;;;6.18;;
69906;SDS011;57190;47.918;8.112;2023-06-26T10:44:08;6.70;;;6.20;;
69906;SDS011;57190;47.918;8.112;2023-06-26T10:49:17;6.95;;;6.35;;
69906;SDS011;57190;47.918;8.112;2023-06-26T10:51:47;6.65;;;6.05;;
69906;SDS011;57190;47.918;8.112;2023-06-26T10:54:17;7.68;;;6.88;;
69906;SDS011;57190;47.918;8.112;2023-06-26T10:56:44;7.00;;;6.47;;
69906;SDS011;57190;47.918;8.112;2023-06-26T10:59:21;6.70;;;6.10;;
69906;SDS011;57190;47.918;8.112;2023-06-26T11:01:58;9.43;;;6.60;;
69906;SDS011;57190;47.918;8.112;2023-06-26T11:04:38;6.80;;;6.30;;
69906;SDS011;57190;47.918;8.112;2023-06-26T11:09:59;6.10;;;5.70;;
69906;SDS011;57190;47.918;8.112;2023-06-26T11:12:42;6.32;;;5.93;;
69906;SDS011;57190;47.918;8.112;2023-06-26T11:17:36;7.22;;;6.63;;
69906;SDS011;57190;47.918;8.112;2023-06-26T11:20:05;6.78;;;6.38;;
69906;SDS011;57190;47.918;8.112;2023-06-26T11:22:34;6.72;;;6.22;;
69906;SDS011;57190;47.918;8.112;2023-06-26T11:25:01;6.63;;;6.13;;
69906;SDS011;57190;47.918;8.112;2023-06-26T11:30:04;6.47;;;5.97;;
69906;SDS011;57190;47.918;8.112;2023-06-26T11:32:31;6.22;;;5.63;;
69906;SDS011;57190;47.918;8.112;2023-06-26T11:34:59;6.78;;;6.25;;
69906;SDS011;57190;47.918;8.112;2023-06-26T11:37:25;5.65;;;5.28;;
69906;SDS011;57190;47.918;8.112;2023-06-26T11:39:51;5.68;;;5.28;;
69906;SDS011;57190;47.918;8.112;2023-06-26T11:42:17;5.82;;;5.40;;
69906;SDS011;57190;47.918;8.112;2023-06-26T11:44:44;6.10;;;5.50;;
69906;SDS011;57190;47.918;8.112;2023-06-26T11:47:16;6.40;;;6.00;;
69906;SDS011;57190;47.918;8.112;2023-06-26T11:49:47;6.88;;;6.43;;
69906;SDS011;57190;47.918;8.112;2023-06-26T11:52:14;6.20;;;5.70;;
69906;SDS011;57190;47.918;8.112;2023-06-26T11:54:41;6.40;;;5.88;;
69906;SDS011;57190;47.918;8.112;2023-06-26T11:57:08;6.55;;;5.93;;
69906;SDS011;57190;47.918;8.112;2023-06-26T11:59:39;6.47;;;5.97;;
69906;SDS011;57190;47.918;8.112;2023-06-26T12:02:06;7.07;;;6.57;;
69906;SDS011;57190;47.918;8.112;2023-06-26T12:04:33;6.80;;;6.25;;
69906;SDS011;57190;47.918;8.112;2023-06-26T12:07:01;6.28;;;5.78;;
69906;SDS011;57190;47.918;8.112;2023-06-26T12:09:29;6.55;;;6.05;;
69906;SDS011;57190;47.918;8.112;2023-06-26T12:11:55;6.53;;;6.03;;
69906;SDS011;57190;47.918;8.112;2023-06-26T12:14:22;7.57;;;6.97;;
69906;SDS011;57190;47.918;8.112;2023-06-26T12:16:50;9.30;;;7.25;;
69906;SDS011;57190;47.918;8.112;2023-06-26T12:19:17;6.60;;;6.10;;
69906;SDS011;57190;47.918;8.112;2023-06-26T12:21:49;6.07;;;5.57;;
69906;SDS011;57190;47.918;8.112;2023-06-26T12:24:19;6.85;;;6.45;;
69906;SDS011;57190;47.918;8.112;2023-06-26T12:26:47;6.30;;;5.90;;
69906;SDS011;57190;47.918;8.112;2023-06-26T12:29:17;6.50;;;6.00;;
69906;SDS011;57190;47.918;8.112;2023-06-26T12:31:45;7.85;;;7.20;;
69906;SDS011;57190;47.918;8.112;2023-06-26T12:34:14;7.28;;;6.75;;
69906;SDS011;57190;47.918;8.112;2023-06-26T12:36:47;7.80;;;7.10;;
69906;SDS011;57190;47.918;8.112;2023-06-26T12:39:18;6.63;;;6.22;;
69906;SDS011;57190;47.918;8.112;2023-06-26T12:41:53;6.90;;;6.40;;
69906;SDS011;57190;47.918;8.112;2023-06-26T12:44:27;6.72;;;6.32;;
69906;SDS011;57190;47.918;8.112;2023-06-26T12:46:57;6.40;;;6.00;;
69906;SDS011;57190;47.918;8.112;2023-06-26T12:49:56;6.90;;;6.40;;
69906;SDS011;57190;47.918;8.112;2023-06-26T12:52:16;6.80;;;6.20;;
69906;SDS011;57190;47.918;8.112;2023-06-26T12:54:44;7.38;;;6.80;;
69906;SDS011;57190;47.918;8.112;2023-06-26T12:57:09;6.45;;;5.95;;
69906;SDS011;57190;47.918;8.112;2023-06-26T12:59:36;6.78;;;6.18;;
69906;SDS011;57190;47.918;8.112;2023-06-26T13:02:03;6.68;;;6.28;;
69906;SDS011;57190;47.918;8.112;2023-06-26T13:04:28;6.68;;;6.18;;
69906;SDS011;57190;47.918;8.112;2023-06-26T13:06:54;6.63;;;6.13;;
69906;SDS011;57190;47.918;8.112;2023-06-26T13:09:21;6.47;;;6.07;;
69906;SDS011;57190;47.918;8.112;2023-06-26T13:11:47;6.47;;;5.88;;
69906;SDS011;57190;47.918;8.112;2023-06-26T13:14:13;7.05;;;6.55;;
69906;SDS011;57190;47.918;8.112;2023-06-26T13:20:00;6.25;;;5.85;;
69906;SDS011;57190;47.918;8.112;2023-06-26T13:22:25;7.47;;;6.63;;
69906;SDS011;57190;47.918;8.112;2023-06-26T13:24:51;6.72;;;6.22;;
69906;SDS011;57190;47.918;8.112;2023-06-26T13:27:16;5.95;;;5.55;;
69906;SDS011;57190;47.918;8.112;2023-06-26T13:29:42;6.38;;;5.80;;
69906;SDS011;57190;47.918;8.112;2023-06-26T13:32:12;6.05;;;5.57;;
69906;SDS011;57190;47.918;8.112;2023-06-26T13:34:37;6.22;;;5.78;;
69906;SDS011;57190;47.918;8.112;2023-06-26T13:37:03;6.18;;;5.78;;
69906;SDS011;57190;47.918;8.112;2023-06-26T13:39:28;6.25;;;5.80;;
69906;SDS011;57190;47.918;8.112;2023-06-26T13:51:38;5.82;;;5.35;;
69906;SDS011;57190;47.918;8.112;2023-06-26T13:54:10;5.95;;;4.95;;
69906;SDS011;57190;47.918;8.112;2023-06-26T13:56:35;5.07;;;4.75;;
69906;SDS011;57190;47.918;8.112;2023-06-26T13:59:02;5.97;;;5.47;;
69906;SDS011;57190;47.918;8.112;2023-06-26T14:01:28;5.80;;;5.40;;
69906;SDS011;57190;47.918;8.112;2023-06-26T14:03:54;5.25;;;4.85;;
69906;SDS011;57190;47.918;8.112;2023-06-26T14:06:19;5.32;;;4.93;;
69906;SDS011;57190;47.918;8.112;2023-06-26T14:08:45;5.43;;;5.05;;
69906;SDS011;57190;47.918;8.112;2023-06-26T14:11:10;5.68;;;4.55;;
69906;SDS011;57190;47.918;8.112;2023-06-26T14:13:36;4.93;;;4.63;;
69906;SDS011;57190;47.918;8.112;2023-06-26T14:16:01;5.40;;;5.00;;
69906;SDS011;57190;47.918;8.112;2023-06-26T14:18:27;4.65;;;4.35;;
69906;SDS011;57190;47.918;8.112;2023-06-26T14:20:52;4.95;;;4.63;;
69906;SDS011;57190;47.918;8.112;2023-06-26T14:23:18;5.07;;;4.68;;
69906;SDS011;57190;47.918;8.112;2023-06-26T14:25:44;5.28;;;4.88;;
69906;SDS011;57190;47.918;8.112;2023-06-26T14:28:09;5.07;;;4.57;;
69906;SDS011;57190;47.918;8.112;2023-06-26T14:30:35;4.82;;;4.32;;
69906;SDS011;57190;47.918;8.112;2023-06-26T14:33:02;4.20;;;3.90;;
69906;SDS011;57190;47.918;8.112;2023-06-26T14:35:27;4.63;;;4.28;;
69906;SDS011;57190;47.918;8.112;2023-06-26T14:37:53;4.88;;;4.43;;
69906;SDS011;57190;47.918;8.112;2023-06-26T14:40:19;4.45;;;4.15;;
69906;SDS011;57190;47.918;8.112;2023-06-26T14:42:44;4.60;;;4.20;;
69906;SDS011;57190;47.918;8.112;2023-06-26T14:45:10;4.65;;;4.35;;
69906;SDS011;57190;47.918;8.112;2023-06-26T14:47:36;4.57;;;4.18;;
69906;SDS011;57190;47.918;8.112;2023-06-26T14:50:01;4.00;;;3.70;;
69906;SDS011;57190;47.918;8.112;2023-06-26T14:52:27;4.35;;;3.95;;
69906;SDS011;57190;47.918;8.112;2023-06-26T14:54:52;4.40;;;4.10;;
69906;SDS011;57190;47.918;8.112;2023-06-26T14:57:18;6.80;;;4.20;;
69906;SDS011;57190;47.918;8.112;2023-06-26T14:59:43;4.72;;;4.43;;
69906;SDS011;57190;47.918;8.112;2023-06-26T15:02:09;3.85;;;3.63;;
69906;SDS011;57190;47.918;8.112;2023-06-26T15:04:34;4.57;;;4.18;;
69906;SDS011;57190;47.918;8.112;2023-06-26T15:07:00;4.40;;;4.03;;
69906;SDS011;57190;47.918;8.112;2023-06-26T15:09:25;5.25;;;4.20;;
69906;SDS011;57190;47.918;8.112;2023-06-26T15:11:51;4.55;;;4.15;;
69906;SDS011;57190;47.918;8.112;2023-06-26T15:14:16;4.40;;;4.00;;
69906;SDS011;57190;47.918;8.112;2023-06-26T15:16:42;4.63;;;4.22;;
69906;SDS011;57190;47.918;8.112;2023-06-26T15:19:07;3.92;;;3.58;;
69906;SDS011;57190;47.918;8.112;2023-06-26T15:21:34;3.80;;;3.50;;
69906;SDS011;57190;47.918;8.112;2023-06-26T15:23:59;4.20;;;3.67;;
69906;SDS011;57190;47.918;8.112;2023-06-26T15:26:25;3.47;;;3.20;;